Time;durP1;ratioP1;P1;durP2;ratioP2;P2;SDS_P1;SDS_P2;PMS_P1;PMS_P2;Temp;Humidity;BMP_temperature;BMP_pressure;BME280_temperature;BME280_humidity;BME280_pressure;Samples;Min_cycle;Max_cycle;Signal;HPM_P1;HPM_P2
2022/06/14 00:03:17;;;;;;;;;;;;;;;23.99;31.49;99842.94;5094521;28;20016;-69
2022/06/14 00:05:42;;;;;;;;;;;;;;;23.98;31.69;99845.94;5093918;28;19951;-69
2022/06/14 00:08:07;;;;;;;;;;;;;;;23.97;31.41;99845.16;5093868;28;19969;-69
2022/06/14 00:10:33;;;;;;;;;;;;;;;23.98;31.46;99840.50;5093809;28;19960;-69
2022/06/14 00:12:58;;;;;;;;;;;;;;;23.98;31.60;99840.50;5093817;28;19939;-69
2022/06/14 00:15:23;;;;;;;;;;;;;;;23.96;31.33;99834.53;5093748;28;19939;-69
2022/06/14 00:17:49;;;;;;;;;;;;;;;23.96;31.41;99839.97;5093959;28;20019;-69
2022/06/14 00:20:14;;;;;;;;;;;;;;;23.97;31.22;99844.31;5093876;28;20286;-68
2022/06/14 00:22:40;;;;;;;;;;;;;;;23.97;31.48;99844.31;5093648;28;19920;-69
2022/06/14 00:25:05;;;;;;;;;;;;;;;23.97;31.12;99838.84;5093868;28;19916;-68
2022/06/14 00:27:31;;;;;;;;;;;;;;;23.97;31.28;99838.84;5093531;28;19916;-68
2022/06/14 00:29:56;;;;;;;;;;;;;;;23.96;31.02;99839.97;5094007;28;19967;-69
2022/06/14 00:32:21;;;;;;;;;;;;;;;23.96;31.27;99839.97;5094426;28;20300;-69
2022/06/14 00:34:47;;;;;;;;;;;;;;;23.94;31.05;99840.25;5095111;28;19916;-68
2022/06/14 00:37:13;;;;;;;;;;;;;;;23.94;31.11;99834.81;5093690;28;20011;-68
2022/06/14 00:39:39;;;;;;;;;;;;;;;23.95;30.95;99838.34;5093539;28;20390;-68
2022/06/14 00:42:04;;;;;;;;;;;;;;;23.94;30.81;99839.44;5093653;28;20019;-69
2022/06/14 00:44:30;;;;;;;;;;;;;;;23.94;30.70;99845.72;5094142;28;19920;-69
2022/06/14 00:46:58;;;;;;;;;;;;;;;23.94;30.75;99850.34;5093457;28;19923;-68
2022/06/14 00:49:44;;;;;;;;;;;;;;;23.95;30.60;99852.78;5093806;28;19939;-68
2022/06/14 00:52:15;;;;;;;;;;;;;;;23.94;30.51;99851.19;5107883;28;19941;-69
2022/06/14 00:54:40;;;;;;;;;;;;;;;23.93;30.56;99843.28;5112813;28;19962;-68
2022/06/14 00:57:07;;;;;;;;;;;;;;;23.91;30.35;99846.28;5113702;28;19969;-68
2022/06/14 00:59:34;;;;;;;;;;;;;;;23.93;30.35;99849.53;5114227;28;19923;-68
2022/06/14 01:02:10;;;;;;;;;;;;;;;23.93;30.34;99849.53;5113722;28;19916;-68
2022/06/14 01:04:36;;;;;;;;;;;;;;;23.93;30.51;99848.75;5114007;28;19938;-68
2022/06/14 01:07:04;;;;;;;;;;;;;;;23.93;30.27;99846.00;5113648;28;20311;-68
2022/06/14 01:09:37;;;;;;;;;;;;;;;23.92;30.22;99841.66;5113523;28;20444;-68
2022/06/14 01:12:08;;;;;;;;;;;;;;;23.91;30.18;99851.75;5113700;28;19915;-68
2022/06/14 01:14:52;;;;;;;;;;;;;;;23.92;30.33;99841.66;5112366;28;20281;-68
2022/06/14 01:17:18;;;;;;;;;;;;;;;23.91;30.16;99845.50;5113802;28;20044;-68
2022/06/14 01:19:43;;;;;;;;;;;;;;;23.91;30.03;99845.50;5112341;28;20366;-68
2022/06/14 01:22:08;;;;;;;;;;;;;;;23.90;30.01;99846.59;5113850;28;19920;-68
2022/06/14 01:24:34;;;;;;;;;;;;;;;23.90;30.04;99849.31;5115899;28;20362;-68
2022/06/14 01:26:59;;;;;;;;;;;;;;;23.89;29.96;99847.69;5117583;28;20366;-68
2022/06/14 01:29:24;;;;;;;;;;;;;;;23.90;29.76;99846.59;5117605;28;19916;-68
2022/06/14 01:31:49;;;;;;;;;;;;;;;23.90;29.77;99838.41;5116386;28;20285;-68
2022/06/14 01:34:15;;;;;;;;;;;;;;;23.90;29.84;99841.13;5117586;28;20204;-68
2022/06/14 01:36:40;;;;;;;;;;;;;;;23.90;29.98;99839.19;5117120;28;19968;-68
2022/06/14 01:39:06;;;;;;;;;;;;;;;23.89;29.68;99840.31;5115748;28;20315;-68
2022/06/14 01:41:32;;;;;;;;;;;;;;;23.89;29.73;99836.78;5117203;28;19976;-68
2022/06/14 01:44:00;;;;;;;;;;;;;;;23.89;29.77;99836.78;5116997;28;20449;-68
2022/06/14 01:46:32;;;;;;;;;;;;;;;23.89;29.82;99850.44;5117658;28;19988;-68
2022/06/14 01:51:53;;;;;;;;;;;;;;;23.89;29.78;99858.63;5105848;28;19928;-69
2022/06/14 01:54:28;;;;;;;;;;;;;;;23.87;29.86;99863.53;5096845;28;19961;-69
2022/06/14 01:56:59;;;;;;;;;;;;;;;23.87;29.99;99861.63;5095411;28;19916;-69
2022/06/14 01:59:28;;;;;;;;;;;;;;;23.87;29.78;99853.44;5096579;28;19924;-69
2022/06/14 02:01:56;;;;;;;;;;;;;;;23.88;29.51;99856.97;5096225;28;19947;-68
2022/06/14 02:04:39;;;;;;;;;;;;;;;23.87;29.67;99849.88;5096268;28;19916;-69
2022/06/14 02:07:05;;;;;;;;;;;;;;;23.88;29.49;99862.44;5095310;28;20040;-68
2022/06/14 02:09:36;;;;;;;;;;;;;;;23.86;29.64;99856.47;5096437;28;20366;-68
2022/06/14 02:12:03;;;;;;;;;;;;;;;23.86;29.76;99860.00;5096457;28;19944;-68
2022/06/14 02:14:39;;;;;;;;;;;;;;;23.87;29.75;99861.63;5096728;28;19920;-67
2022/06/14 02:17:07;;;;;;;;;;;;;;;23.87;29.54;99855.34;5094831;28;20430;-68
2022/06/14 02:19:36;;;;;;;;;;;;;;;23.87;29.61;99863.53;5095138;28;19938;-68
2022/06/14 02:22:05;;;;;;;;;;;;;;;23.86;29.90;99862.72;5096296;28;19916;-69
2022/06/14 02:24:43;;;;;;;;;;;;;;;23.86;29.43;99867.38;5095824;28;19927;-68
2022/06/14 02:27:27;;;;;;;;;;;;;;;23.84;29.73;99866.84;5094594;28;20271;-68
2022/06/14 02:29:54;;;;;;;;;;;;;;;23.85;29.61;99871.19;5095954;28;20011;-67
2022/06/14 02:32:24;;;;;;;;;;;;;;;23.85;29.71;99865.75;5094702;28;20022;-67
2022/06/14 02:34:50;;;;;;;;;;;;;;;23.85;29.66;99868.47;5094267;28;20044;-67
2022/06/14 02:37:30;;;;;;;;;;;;;;;23.84;29.79;99870.38;5094427;28;19965;-68
2022/06/14 02:39:56;;;;;;;;;;;;;;;23.84;29.90;99864.13;5094815;28;19923;-67
2022/06/14 02:42:25;;;;;;;;;;;;;;;23.85;30.00;99868.47;5095979;28;19920;-67
2022/06/14 02:45:03;;;;;;;;;;;;;;;23.86;29.72;99872.84;5095572;28;19920;-67
2022/06/14 02:47:39;;;;;;;;;;;;;;;23.85;29.75;99863.81;5095965;28;19917;-67
2022/06/14 02:50:07;;;;;;;;;;;;;;;23.85;29.88;99869.28;5094511;28;20381;-67
2022/06/14 02:52:55;;;;;;;;;;;;;;;23.84;29.93;99862.19;5111423;28;19969;-68
2022/06/14 02:55:23;;;;;;;;;;;;;;;23.84;30.03;99864.94;5114476;28;19922;-68
2022/06/14 02:58:06;;;;;;;;;;;;;;;23.85;30.31;99869.28;5115469;28;19916;-68
2022/06/14 03:00:34;;;;;;;;;;;;;;;23.84;30.06;99869.59;5114821;28;19920;-68
2022/06/14 03:03:06;;;;;;;;;;;;;;;23.85;30.15;99872.00;5115895;28;19920;-68
2022/06/14 03:05:36;;;;;;;;;;;;;;;23.87;30.30;99877.16;5115524;28;20425;-68
2022/06/14 03:08:10;;;;;;;;;;;;;;;23.91;30.30;99889.16;5114356;28;19915;-69
2022/06/14 03:10:46;;;;;;;;;;;;;;;23.92;30.46;99886.13;5115335;28;20048;-69
2022/06/14 03:13:19;;;;;;;;;;;;;;;23.95;30.26;99890.19;5115461;28;19923;-69
2022/06/14 03:15:48;;;;;;;;;;;;;;;23.99;30.26;99891.22;5114159;28;19923;-69
2022/06/14 03:18:22;;;;;;;;;;;;;;;24.02;30.43;99895.31;5115098;28;19923;-68
2022/06/14 03:20:59;;;;;;;;;;;;;;;24.05;30.39;99901.00;5114271;28;20014;-68
2022/06/14 03:23:27;;;;;;;;;;;;;;;24.09;30.44;99904.75;5115141;28;20314;-68
2022/06/14 03:26:04;;;;;;;;;;;;;;;24.11;30.46;99894.41;5115133;28;20007;-68
2022/06/14 03:28:39;;;;;;;;;;;;;;;24.16;30.69;99904.44;5114217;28;19915;-68
2022/06/14 03:31:08;;;;;;;;;;;;;;;24.18;30.52;99892.13;5114972;28;20370;-68
2022/06/14 03:33:45;;;;;;;;;;;;;;;24.21;30.71;99884.47;5113627;28;19920;-69
2022/06/14 03:36:10;;;;;;;;;;;;;;;24.23;30.89;99882.25;5113947;28;19920;-68
2022/06/14 03:38:47;;;;;;;;;;;;;;;24.27;30.97;99880.56;5114488;28;19926;-68
2022/06/14 03:41:13;;;;;;;;;;;;;;;24.31;31.10;99876.94;5115054;28;19918;-68
2022/06/14 03:43:39;;;;;;;;;;;;;;;24.33;31.18;99880.19;5115614;28;20006;-68
2022/06/14 03:46:29;;;;;;;;;;;;;;;24.38;31.16;99879.31;5114481;28;19955;-68
2022/06/14 03:48:56;;;;;;;;;;;;;;;24.44;31.14;99877.34;5071982;28;19983;-69
2022/06/14 03:51:27;;;;;;;;;;;;;;;24.45;31.20;99871.59;5055294;28;20371;-69
2022/06/14 03:53:55;;;;;;;;;;;;;;;24.49;31.19;99871.81;5071829;28;20544;-69
2022/06/14 03:56:28;;;;;;;;;;;;;;;24.49;31.37;99878.09;5071915;28;19928;-69
2022/06/14 03:59:03;;;;;;;;;;;;;;;24.50;31.95;99868.78;5054767;28;19931;-70
2022/06/14 04:01:30;;;;;;;;;;;;;;;24.52;31.51;99872.03;5071639;28;19924;-70
2022/06/14 04:04:01;;;;;;;;;;;;;;;24.56;31.56;99877.78;5054944;28;19944;-70
2022/06/14 04:06:47;;;;;;;;;;;;;;;24.59;31.72;99877.16;5071446;28;20403;-70
2022/06/14 04:09:15;;;;;;;;;;;;;;;24.60;31.73;99872.53;5054666;28;20346;-70
2022/06/14 04:11:40;;;;;;;;;;;;;;;24.63;31.69;99878.22;5071353;28;19921;-70
2022/06/14 04:14:11;;;;;;;;;;;;;;;24.67;31.52;99876.53;5071569;28;19917;-70
2022/06/14 04:16:55;;;;;;;;;;;;;;;24.68;31.68;99874.59;5071525;28;20352;-70
2022/06/14 04:19:31;;;;;;;;;;;;;;;24.71;31.61;99882.22;5071242;28;19978;-70
2022/06/14 04:22:02;;;;;;;;;;;;;;;24.73;31.93;99882.72;5054712;28;19924;-71
2022/06/14 04:24:30;;;;;;;;;;;;;;;24.74;31.93;99884.34;5071564;28;19917;-71
2022/06/14 04:26:58;;;;;;;;;;;;;;;24.78;31.74;99881.84;5092299;28;19922;-71
2022/06/14 04:29:36;;;;;;;;;;;;;;;24.78;31.64;99876.38;5094063;28;20007;-71
2022/06/14 04:32:04;;;;;;;;;;;;;;;24.78;31.76;99882.66;5093454;28;20362;-69
2022/06/14 04:34:31;;;;;;;;;;;;;;;24.80;31.70;99883.19;5093411;28;19916;-70
2022/06/14 04:37:01;;;;;;;;;;;;;;;24.80;32.02;99888.66;5092489;28;19973;-71
2022/06/14 04:39:31;;;;;;;;;;;;;;;24.81;31.75;99884.00;5092560;28;19923;-70
2022/06/14 04:41:56;;;;;;;;;;;;;;;24.82;31.80;99880.97;5093480;28;19938;-69
2022/06/14 04:44:27;;;;;;;;;;;;;;;24.84;32.09;99884.22;5093486;28;20354;-70
2022/06/14 04:47:21;;;;;;;;;;;;;;;24.86;31.93;99886.66;5093231;28;20285;-69
2022/06/14 04:49:48;;;;;;;;;;;;;;;24.86;32.12;99892.13;5050723;28;20466;-70
2022/06/14 04:52:16;;;;;;;;;;;;;;;24.89;32.15;99888.81;5050571;28;19966;-70
2022/06/14 04:54:44;;;;;;;;;;;;;;;24.79;32.55;99897.94;5051036;28;19940;-70
2022/06/14 04:57:14;;;;;;;;;;;;;;;24.87;32.32;99894.56;5051155;28;19975;-71
2022/06/14 04:59:41;;;;;;;;;;;;;;;24.92;32.38;99902.69;5053184;28;20285;-70
2022/06/14 05:02:09;;;;;;;;;;;;;;;24.86;32.18;99898.38;5056456;28;19916;-69
2022/06/14 05:04:36;;;;;;;;;;;;;;;24.93;32.30;99904.28;5055355;28;19921;-70
2022/06/14 05:07:21;;;;;;;;;;;;;;;24.96;32.34;99897.44;5056556;28;19921;-69
2022/06/14 05:09:55;;;;;;;;;;;;;;;24.99;32.34;99901.50;5055517;28;19917;-70
2022/06/14 05:12:23;;;;;;;;;;;;;;;25.02;32.41;99906.38;5055021;28;19935;-69
2022/06/14 05:15:03;;;;;;;;;;;;;;;25.01;32.41;99913.78;5055383;28;19916;-70
2022/06/14 05:17:36;;;;;;;;;;;;;;;25.04;32.74;99915.09;5054926;28;19960;-69
2022/06/14 05:20:10;;;;;;;;;;;;;;;25.06;32.45;99915.59;5055221;28;19917;-69
2022/06/14 05:22:59;;;;;;;;;;;;;;;25.07;32.58;99919.97;5054765;28;19924;-69
2022/06/14 05:25:25;;;;;;;;;;;;;;;25.12;32.88;99917.16;5023020;28;19916;-70
2022/06/14 05:27:53;;;;;;;;;;;;;;;25.14;32.48;99916.88;5071553;28;20046;-69
2022/06/14 05:30:24;;;;;;;;;;;;;;;25.13;32.61;99910.59;5055945;28;20031;-70
2022/06/14 05:32:58;;;;;;;;;;;;;;;25.14;32.70;99906.72;5054217;28;19928;-71
2022/06/14 05:35:49;;;;;;;;;;;;;;;25.17;32.69;99908.88;5070905;28;20012;-71
2022/06/14 05:38:26;;;;;;;;;;;;;;;25.22;32.50;99900.59;5052982;28;19987;-70
2022/06/14 05:41:02;;;;;;;;;;;;;;;25.24;32.51;99903.03;5054748;28;19933;-71
2022/06/14 05:43:31;;;;;;;;;;;;;;;25.16;32.89;99893.56;5071523;28;20011;-69
2022/06/14 05:46:01;;;;;;;;;;;;;;;25.21;33.06;99893.50;5072249;28;20040;-72
2022/06/14 05:48:50;;;;;;;;;;;;;;;25.26;32.71;99896.19;5071559;28;20027;-70
2022/06/14 05:51:16;;;;;;;;;;;;;;;25.27;32.89;99903.28;5051536;28;19924;-70
2022/06/14 05:53:46;;;;;;;;;;;;;;;25.29;33.17;99906.53;5054226;28;19917;-70
2022/06/14 05:56:22;;;;;;;;;;;;;;;25.34;32.80;99910.31;5054892;28;20360;-69
2022/06/14 05:58:47;;;;;;;;;;;;;;;25.37;33.00;99904.22;5071227;28;19924;-70
2022/06/14 06:01:15;;;;;;;;;;;;;;;25.39;32.91;99904.72;5054855;28;19923;-70
2022/06/14 06:03:43;;;;;;;;;;;;;;;25.35;33.06;99903.72;5117672;28;19919;-69
2022/06/14 06:06:09;;;;;;;;;;;;;;;25.37;33.35;99913.25;5118109;28;19991;-70
2022/06/14 06:08:37;;;;;;;;;;;;;;;25.37;33.19;99899.59;5118141;28;19924;-70
2022/06/14 06:11:19;;;;;;;;;;;;;;;25.41;32.98;99908.00;5118008;28;19915;-69
2022/06/14 06:14:04;;;;;;;;;;;;;;;25.45;33.02;99898.88;5117638;28;20374;-70
2022/06/14 06:17:03;;;;;;;;;;;;;;;25.52;32.73;99903.97;5075082;28;19921;-69
2022/06/14 06:19:26;;;;;;;;;;;;;;;25.57;32.89;99906.63;5071905;28;20287;-70
2022/06/14 06:21:56;;;;;;;;;;;;;;;25.54;32.67;99904.47;5074449;28;19946;-71
2022/06/14 06:24:24;;;;;;;;;;;;;;;25.55;32.93;99913.50;5057618;28;19921;-70
2022/06/14 06:26:50;;;;;;;;;;;;;;;25.53;32.82;99911.06;5074322;28;19917;-70
2022/06/14 06:29:34;;;;;;;;;;;;;;;25.57;32.79;99912.09;5074472;28;19928;-70
2022/06/14 06:31:59;;;;;;;;;;;;;;;25.57;32.89;99905.81;5058133;28;19916;-70
2022/06/14 06:34:24;;;;;;;;;;;;;;;25.61;32.78;99912.31;5075284;28;20363;-71
2022/06/14 06:36:50;;;;;;;;;;;;;;;25.62;32.87;99914.75;5074892;28;19920;-70
2022/06/14 06:39:21;;;;;;;;;;;;;;;25.63;32.91;99916.38;5075293;28;20363;-70
2022/06/14 06:41:50;;;;;;;;;;;;;;;25.60;33.09;99906.03;5075222;28;19972;-69
2022/06/14 06:44:34;;;;;;;;;;;;;;;25.60;32.97;99899.75;5075606;28;19954;-70
2022/06/14 06:47:05;;;;;;;;;;;;;;;25.62;33.02;99911.19;5075139;28;20026;-70
2022/06/14 06:49:36;;;;;;;;;;;;;;;25.56;33.08;99905.00;5074793;28;19940;-70
2022/06/14 06:52:01;;;;;;;;;;;;;;;25.57;33.08;99914.81;5053600;28;20418;-70
2022/06/14 06:54:44;;;;;;;;;;;;;;;25.59;32.98;99907.13;5074988;28;19916;-69
2022/06/14 06:57:10;;;;;;;;;;;;;;;25.59;33.22;99906.31;5075072;28;19928;-71
2022/06/14 06:59:39;;;;;;;;;;;;;;;25.59;33.12;99909.84;5075560;28;19947;-70
2022/06/14 07:02:10;;;;;;;;;;;;;;;25.59;33.36;99904.38;5075297;28;19916;-69
2022/06/14 07:07:20;;;;;;;;;;;;;;;25.56;33.49;99905.00;5073966;28;20326;-70
2022/06/14 07:09:47;;;;;;;;;;;;;;;25.62;33.31;99909.25;5075160;28;20301;-70
2022/06/14 07:12:14;;;;;;;;;;;;;;;25.66;33.53;99907.56;5075055;28;19917;-69
2022/06/14 07:14:51;;;;;;;;;;;;;;;25.64;33.67;99907.03;5074601;28;19916;-70
2022/06/14 07:17:24;;;;;;;;;;;;;;;25.66;33.65;99899.38;5074422;28;19916;-71
2022/06/14 07:19:56;;;;;;;;;;;;;;;25.68;33.68;99901.78;5074582;28;19916;-70
2022/06/14 07:22:23;;;;;;;;;;;;;;;25.74;33.17;99906.06;5074227;28;20317;-70
2022/06/14 07:25:07;;;;;;;;;;;;;;;25.70;33.25;99901.47;5073002;28;19923;-70
2022/06/14 07:27:37;;;;;;;;;;;;;;;25.71;33.15;99898.44;5073891;28;19967;-70
2022/06/14 07:30:05;;;;;;;;;;;;;;;25.74;33.15;99908.78;5074793;28;19942;-71
2022/06/14 07:32:31;;;;;;;;;;;;;;;25.77;33.25;99901.91;5076910;28;19920;-71
2022/06/14 07:34:57;;;;;;;;;;;;;;;25.76;32.95;99911.22;5075439;28;19969;-72
2022/06/14 07:37:32;;;;;;;;;;;;;;;25.73;32.94;99909.91;5083590;28;19920;-72
2022/06/14 07:39:59;;;;;;;;;;;;;;;25.74;33.13;99908.00;5095154;28;19920;-72
2022/06/14 07:42:30;;;;;;;;;;;;;;;25.78;32.81;99904.34;5094868;28;20432;-71
2022/06/14 07:45:11;;;;;;;;;;;;;;;25.81;32.92;99917.41;5096005;28;19923;-72
2022/06/14 07:47:39;;;;;;;;;;;;;;;25.79;33.05;99910.63;5096069;28;19938;-71
2022/06/14 07:50:06;;;;;;;;;;;;;;;25.79;32.91;99911.44;5097403;28;19916;-71
2022/06/14 07:52:48;;;;;;;;;;;;;;;25.82;32.92;99910.84;5105755;28;20061;-71
2022/06/14 07:55:19;;;;;;;;;;;;;;;25.84;33.06;99910.53;5116260;28;20003;-71
2022/06/14 07:57:46;;;;;;;;;;;;;;;25.88;32.72;99908.00;5115047;28;19983;-70
2022/06/14 08:03:22;;;;;;;;;;;;;;;25.86;32.92;99906.38;5116376;28;19926;-71
2022/06/14 08:05:47;;;;;;;;;;;;;;;25.84;32.75;99905.88;5115865;28;20431;-70
2022/06/14 08:08:14;;;;;;;;;;;;;;;25.83;32.95;99911.66;5115310;28;19915;-71
2022/06/14 08:10:42;;;;;;;;;;;;;;;25.85;33.00;99913.00;5115801;28;19943;-73
2022/06/14 08:13:11;;;;;;;;;;;;;;;25.84;32.99;99911.34;5097603;28;19916;-72
2022/06/14 08:15:41;;;;;;;;;;;;;;;25.86;32.92;99922.81;5113270;28;19969;-72
2022/06/14 08:18:11;;;;;;;;;;;;;;;25.86;33.01;99919.25;5114259;28;19915;-72
2022/06/14 08:20:40;;;;;;;;;;;;;;;25.89;32.81;99915.09;5112842;28;19916;-72
2022/06/14 08:23:07;;;;;;;;;;;;;;;25.89;32.87;99923.31;5114861;28;19957;-72
2022/06/14 08:25:33;;;;;;;;;;;;;;;25.88;32.71;99919.75;5115509;28;19983;-71
2022/06/14 08:27:58;;;;;;;;;;;;;;;25.89;32.83;99912.34;5113753;28;19915;-71
2022/06/14 08:30:31;;;;;;;;;;;;;;;25.89;32.78;99906.88;5114392;28;19923;-70
2022/06/14 08:32:58;;;;;;;;;;;;;;;25.96;32.74;99907.34;5113783;28;20373;-71
2022/06/14 08:35:34;;;;;;;;;;;;;;;25.95;32.70;99901.06;5115547;28;19923;-72
2022/06/14 08:38:29;;;;;;;;;;;;;;;25.98;32.63;99899.66;5113589;28;19920;-72
2022/06/14 08:40:57;;;;;;;;;;;;;;;25.96;32.80;99902.69;5051518;28;19931;-72
2022/06/14 08:43:24;;;;;;;;;;;;;;;25.95;32.76;99894.78;5051351;28;19917;-72
2022/06/14 08:45:55;;;;;;;;;;;;;;;25.99;32.74;99907.56;5051131;28;20351;-72
2022/06/14 08:48:39;;;;;;;;;;;;;;;26.00;32.72;99902.88;5034644;28;19921;-73
2022/06/14 08:51:10;;;;;;;;;;;;;;;26.00;32.75;99908.38;5034565;28;19979;-72
2022/06/14 08:53:54;;;;;;;;;;;;;;;25.98;32.74;99907.84;5051140;28;19917;-72
2022/06/14 08:56:19;;;;;;;;;;;;;;;25.91;32.90;99905.47;5051436;28;19977;-69
2022/06/14 08:58:50;;;;;;;;;;;;;;;26.01;32.61;99910.81;5050903;28;19921;-71
2022/06/14 09:01:26;;;;;;;;;;;;;;;26.00;32.92;99911.91;5051253;28;19921;-70
2022/06/14 09:03:51;;;;;;;;;;;;;;;25.98;32.50;99911.41;5034798;28;19994;-70
2022/06/14 09:06:37;;;;;;;;;;;;;;;26.00;32.71;99909.16;5050760;28;19971;-71
2022/06/14 09:09:10;;;;;;;;;;;;;;;25.97;32.62;99915.25;5051249;28;19916;-71
2022/06/14 09:11:53;;;;;;;;;;;;;;;26.03;32.65;99918.72;5034856;28;20023;-71
2022/06/14 09:14:30;;;;;;;;;;;;;;;25.95;32.71;99922.16;5050828;28;19932;-69
2022/06/14 09:17:05;;;;;;;;;;;;;;;25.98;32.76;99916.88;5066046;28;19916;-69
2022/06/14 09:19:33;;;;;;;;;;;;;;;25.99;32.69;99918.50;5093821;28;19920;-70
2022/06/14 09:22:17;;;;;;;;;;;;;;;26.02;32.64;99912.41;5093552;28;19917;-70
2022/06/14 09:24:42;;;;;;;;;;;;;;;26.05;32.61;99905.53;5093054;28;19962;-70
2022/06/14 09:27:25;;;;;;;;;;;;;;;26.06;32.77;99909.91;5093349;28;20019;-72
2022/06/14 09:30:10;;;;;;;;;;;;;;;26.08;32.50;99893.97;5093707;28;19920;-72
2022/06/14 09:35:37;;;;;;;;;;;;;;;26.11;32.63;99903.50;5093024;28;19958;-73
2022/06/14 09:38:18;;;;;;;;;;;;;;;26.13;32.49;99906.75;5091546;28;19932;-73
2022/06/14 09:40:53;;;;;;;;;;;;;;;26.15;32.27;99901.78;5092786;28;20340;-73
2022/06/14 09:43:37;;;;;;;;;;;;;;;26.16;32.40;99901.47;5093079;28;19916;-74
2022/06/14 09:46:25;;;;;;;;;;;;;;;26.16;32.23;99900.66;5095980;28;20421;-73
2022/06/14 09:48:50;;;;;;;;;;;;;;;26.09;32.44;99894.78;5090954;28;19964;-74
2022/06/14 09:51:40;;;;;;;;;;;;;;;26.08;32.52;99888.50;5096414;28;19916;-72
2022/06/14 09:54:10;;;;;;;;;;;;;;;26.15;32.17;99888.09;5114391;28;19916;-72
2022/06/14 09:56:38;;;;;;;;;;;;;;;26.17;32.16;99883.13;5117264;28;19916;-72
2022/06/14 09:59:16;;;;;;;;;;;;;;;26.11;32.17;99881.59;5117853;28;19952;-72
2022/06/14 10:01:41;;;;;;;;;;;;;;;26.13;32.27;99882.09;5117827;28;19916;-72
2022/06/14 10:04:25;;;;;;;;;;;;;;;26.15;32.30;99888.09;5118031;28;19923;-72
2022/06/14 10:07:03;;;;;;;;;;;;;;;26.22;31.99;99883.03;5117792;28;19926;-72
2022/06/14 10:09:35;;;;;;;;;;;;;;;26.24;32.18;99876.09;5116756;28;19922;-72
2022/06/14 10:12:11;;;;;;;;;;;;;;;26.24;32.04;99880.78;5116614;28;20011;-70
2022/06/14 10:14:54;;;;;;;;;;;;;;;26.00;32.42;99887.25;5116689;28;20027;-70
2022/06/14 10:17:45;;;;;;;;;;;;;;;26.16;31.80;99884.22;5116866;28;19915;-71
2022/06/14 10:20:29;;;;;;;;;;;;;;;26.18;32.21;99882.00;5114160;28;20041;-73
2022/06/14 10:22:56;;;;;;;;;;;;;;;26.14;32.16;99870.03;5116853;28;19916;-75
2022/06/14 10:25:22;;;;;;;;;;;;;;;26.19;31.78;99873.47;5114910;28;19923;-72
2022/06/14 10:30:34;;;;;;;;;;;;;;;26.21;31.99;99876.72;5120489;28;19992;-71
2022/06/14 10:32:59;;;;;;;;;;;;;;;26.23;31.76;99876.41;5116724;28;19919;-71
2022/06/14 10:35:34;;;;;;;;;;;;;;;26.24;31.65;99872.56;5115803;28;20361;-71
2022/06/14 10:37:59;;;;;;;;;;;;;;;26.29;31.74;99868.94;5115681;28;19920;-71
2022/06/14 10:40:43;;;;;;;;;;;;;;;26.28;31.63;99864.56;5116121;28;19923;-72
2022/06/14 10:43:26;;;;;;;;;;;;;;;26.27;31.59;99863.75;5116321;28;19916;-72
2022/06/14 10:45:54;;;;;;;;;;;;;;;26.24;31.82;99856.13;5115797;28;20011;-72
2022/06/14 10:48:22;;;;;;;;;;;;;;;26.21;31.57;99865.75;5114588;28;19915;-72
2022/06/14 10:50:49;;;;;;;;;;;;;;;26.23;31.59;99858.06;5115685;28;19919;-75
2022/06/14 10:53:26;;;;;;;;;;;;;;;26.28;31.68;99859.06;5105439;28;19923;-73
2022/06/14 10:55:57;;;;;;;;;;;;;;;26.22;31.57;99856.44;5094791;28;19923;-72
2022/06/14 10:58:34;;;;;;;;;;;;;;;26.24;31.77;99843.25;5095179;28;19916;-71
2022/06/14 11:01:14;;;;;;;;;;;;;;;26.30;31.56;99845.88;5094131;28;19920;-72
2022/06/14 11:03:57;;;;;;;;;;;;;;;26.30;31.60;99846.72;5093868;28;20278;-71
2022/06/14 11:06:29;;;;;;;;;;;;;;;26.32;31.37;99843.63;5093842;28;19923;-72
2022/06/14 11:09:13;;;;;;;;;;;;;;;26.35;31.59;99841.09;5095298;28;20399;-71
2022/06/14 11:11:47;;;;;;;;;;;;;;;26.33;31.50;99840.59;5095214;28;20006;-72
2022/06/14 11:14:28;;;;;;;;;;;;;;;26.20;31.56;99841.44;5095096;28;20057;-72
2022/06/14 11:17:14;;;;;;;;;;;;;;;26.24;31.90;99839.69;5094796;28;20065;-71
2022/06/14 11:19:49;;;;;;;;;;;;;;;26.35;31.48;99837.56;5093855;28;19939;-71
2022/06/14 11:22:23;;;;;;;;;;;;;;;26.29;31.70;99833.31;5094852;28;19916;-71
2022/06/14 11:24:52;;;;;;;;;;;;;;;26.31;31.67;99831.88;5095156;28;20365;-73
2022/06/14 11:27:30;;;;;;;;;;;;;;;26.08;31.67;99827.44;5095062;28;20303;-72
2022/06/14 11:30:09;;;;;;;;;;;;;;;26.13;31.81;99830.91;5095742;28;19920;-71
2022/06/14 11:32:43;;;;;;;;;;;;;;;26.12;31.58;99817.50;5095063;28;19952;-70
2022/06/14 11:35:23;;;;;;;;;;;;;;;26.27;31.57;99817.19;5093664;28;19916;-72
2022/06/14 11:37:53;;;;;;;;;;;;;;;26.13;31.75;99825.41;5094653;28;20305;-72
2022/06/14 11:40:29;;;;;;;;;;;;;;;26.13;31.80;99827.31;5093267;28;19917;-72
2022/06/14 11:43:03;;;;;;;;;;;;;;;26.12;31.58;99823.78;5093393;28;20290;-73
2022/06/14 11:45:35;;;;;;;;;;;;;;;26.02;31.75;99834.94;5094801;28;19916;-75
2022/06/14 11:48:07;;;;;;;;;;;;;;;26.07;31.73;99814.88;5095267;28;19924;-74
2022/06/14 11:50:34;;;;;;;;;;;;;;;26.01;31.83;99825.94;5095013;28;19916;-75
2022/06/14 11:53:00;;;;;;;;;;;;;;;26.07;31.81;99814.88;5093503;28;19978;-74
2022/06/14 11:55:35;;;;;;;;;;;;;;;26.12;31.37;99818.31;5094827;28;20374;-74
2022/06/14 11:58:04;;;;;;;;;;;;;;;26.12;31.70;99812.03;5093432;28;19931;-73
2022/06/14 12:00:48;;;;;;;;;;;;;;;26.11;31.48;99811.19;5095346;28;19928;-74
2022/06/14 12:03:16;;;;;;;;;;;;;;;26.15;31.25;99817.69;5094934;28;20007;-73
2022/06/14 12:05:41;;;;;;;;;;;;;;;26.12;31.31;99814.78;5094440;28;19956;-73
2022/06/14 12:08:06;;;;;;;;;;;;;;;26.15;31.14;99816.91;5094006;28;19935;-72
2022/06/14 12:10:34;;;;;;;;;;;;;;;26.17;31.06;99817.41;5094312;28;20395;-72
2022/06/14 12:13:00;;;;;;;;;;;;;;;26.16;31.09;99818.50;5094823;28;20057;-73
2022/06/14 12:15:31;;;;;;;;;;;;;;;26.12;30.96;99812.03;5094428;28;19963;-72
2022/06/14 12:17:58;;;;;;;;;;;;;;;26.14;30.94;99820.75;5095879;28;19916;-74
2022/06/14 12:20:24;;;;;;;;;;;;;;;26.10;31.03;99815.06;5096155;28;19916;-71
2022/06/14 12:22:58;;;;;;;;;;;;;;;26.03;31.06;99810.00;5095811;28;19916;-75
2022/06/14 12:28:38;;;;;;;;;;;;;;;26.06;30.97;99803.13;5084143;28;20393;-73
2022/06/14 12:31:11;;;;;;;;;;;;;;;26.05;30.80;99794.06;5093833;28;20339;-71
2022/06/14 12:33:41;;;;;;;;;;;;;;;26.05;30.97;99791.34;5093179;28;19916;-75
2022/06/14 12:36:11;;;;;;;;;;;;;;;26.00;30.99;99783.22;5093454;28;19923;-69
2022/06/14 12:38:37;;;;;;;;;;;;;;;26.04;30.95;99788.91;5075555;28;19928;-72
2022/06/14 12:41:05;;;;;;;;;;;;;;;26.05;30.69;99785.84;5093867;28;19923;-72
2022/06/14 12:44:01;;;;;;;;;;;;;;;26.07;30.54;99793.78;5094233;28;19927;-73
2022/06/14 12:46:27;;;;;;;;;;;;;;;26.08;30.34;99794.56;5051273;28;19917;-73
2022/06/14 12:49:10;;;;;;;;;;;;;;;26.09;30.43;99785.25;5052075;28;20030;-73
2022/06/14 12:51:39;;;;;;;;;;;;;;;26.08;30.33;99783.63;5051493;28;20283;-70
2022/06/14 12:54:07;;;;;;;;;;;;;;;25.99;30.57;99781.63;5064455;28;19939;-70
2022/06/14 12:56:32;;;;;;;;;;;;;;;26.01;30.71;99776.66;5071359;28;19923;-70
2022/06/14 12:59:16;;;;;;;;;;;;;;;26.05;30.51;99774.09;5071203;28;19925;-71
2022/06/14 13:01:47;;;;;;;;;;;;;;;26.09;30.43;99779.78;5071292;28;20073;-70
2022/06/14 13:04:19;;;;;;;;;;;;;;;26.10;30.16;99775.94;5056185;28;19916;-75
2022/06/14 13:06:53;;;;;;;;;;;;;;;26.01;30.17;99762.97;5060907;28;19916;-74
2022/06/14 13:09:31;;;;;;;;;;;;;;;26.09;30.08;99766.09;5081472;28;19923;-74
2022/06/14 13:12:15;;;;;;;;;;;;;;;26.08;30.15;99761.72;5065038;28;19916;-74
2022/06/14 13:14:53;;;;;;;;;;;;;;;26.08;30.14;99756.25;5078843;28;19927;-74
2022/06/14 13:17:36;;;;;;;;;;;;;;;26.08;29.98;99758.97;5065144;28;20088;-74
2022/06/14 13:20:05;;;;;;;;;;;;;;;26.06;30.04;99759.31;5083442;28;19916;-74
2022/06/14 13:22:49;;;;;;;;;;;;;;;26.04;29.87;99754.13;5093363;28;19926;-75
2022/06/14 13:25:21;;;;;;;;;;;;;;;26.04;29.93;99748.66;5118402;28;19947;-75
2022/06/14 13:27:46;;;;;;;;;;;;;;;26.04;29.81;99740.44;5118373;28;20370;-74
2022/06/14 13:30:17;;;;;;;;;;;;;;;26.06;29.82;99742.88;5118115;28;19923;-75
2022/06/14 13:32:48;;;;;;;;;;;;;;;26.03;29.54;99749.78;5116363;28;20346;-74